sensor_id;sensor_type;location;lat;lon;timestamp;pressure;altitude;pressure_sealevel;temperature;humidity
54389;BME280;40975;50.390;8.640;2022-08-19T00:01:21;98728.72;;;20.20;98.17
54389;BME280;40975;50.390;8.640;2022-08-19T00:03:47;98733.47;;;20.25;98.23
54389;BME280;40975;50.390;8.640;2022-08-19T00:06:13;98744.84;;;20.27;98.09
54389;BME280;40975;50.390;8.640;2022-08-19T00:08:38;98740.69;;;20.31;97.67
54389;BME280;40975;50.390;8.640;2022-08-19T00:11:04;98745.47;;;20.29;98.07
54389;BME280;40975;50.390;8.640;2022-08-19T00:13:30;98732.59;;;20.31;97.94
54389;BME280;40975;50.390;8.640;2022-08-19T00:15:56;98726.59;;;20.29;97.79
54389;BME280;40975;50.390;8.640;2022-08-19T00:18:21;98735.31;;;20.31;97.59
54389;BME280;40975;50.390;8.640;2022-08-19T00:20:47;98732.16;;;20.34;97.95
54389;BME280;40975;50.390;8.640;2022-08-19T00:23:12;98741.28;;;20.33;97.33
54389;BME280;40975;50.390;8.640;2022-08-19T00:25:37;98738.81;;;20.31;97.80
54389;BME280;40975;50.390;8.640;2022-08-19T00:28:03;98734.47;;;20.30;97.66
54389;BME280;40975;50.390;8.640;2022-08-19T00:30:29;98726.00;;;20.27;97.97
54389;BME280;40975;50.390;8.640;2022-08-19T00:32:55;98727.66;;;20.28;97.42
54389;BME280;40975;50.390;8.640;2022-08-19T00:35:21;98723.06;;;20.28;98.27
54389;BME280;40975;50.390;8.640;2022-08-19T00:37:48;98726.22;;;20.25;98.25
54389;BME280;40975;50.390;8.640;2022-08-19T00:40:14;98724.34;;;20.26;98.25
54389;BME280;40975;50.390;8.640;2022-08-19T00:42:41;98714.41;;;20.26;98.02
54389;BME280;40975;50.390;8.640;2022-08-19T00:45:12;98709.44;;;20.23;97.94
54389;BME280;40975;50.390;8.640;2022-08-19T00:47:37;98708.59;;;20.23;97.89
54389;BME280;40975;50.390;8.640;2022-08-19T00:50:03;98707.56;;;20.24;98.13
54389;BME280;40975;50.390;8.640;2022-08-19T00:52:32;98708.03;;;20.21;98.17
54389;BME280;40975;50.390;8.640;2022-08-19T00:54:59;98702.84;;;20.19;98.24
54389;BME280;40975;50.390;8.640;2022-08-19T00:57:33;98707.63;;;20.17;98.44
54389;BME280;40975;50.390;8.640;2022-08-19T01:00:00;98702.06;;;20.12;99.23
54389;BME280;40975;50.390;8.640;2022-08-19T01:02:28;98705.00;;;20.10;99.12
54389;BME280;40975;50.390;8.640;2022-08-19T01:04:54;98709.34;;;20.11;98.80
54389;BME280;40975;50.390;8.640;2022-08-19T01:07:20;98704.81;;;20.05;99.24
54389;BME280;40975;50.390;8.640;2022-08-19T01:09:45;98689.31;;;20.00;99.59
54389;BME280;40975;50.390;8.640;2022-08-19T01:12:11;98688.50;;;20.00;99.84
54389;BME280;40975;50.390;8.640;2022-08-19T01:14:39;98683.31;;;19.98;100.00
54389;BME280;40975;50.390;8.640;2022-08-19T01:17:05;98678.81;;;19.92;100.00
54389;BME280;40975;50.390;8.640;2022-08-19T01:19:35;98673.19;;;19.94;100.00
54389;BME280;40975;50.390;8.640;2022-08-19T01:22:28;98678.38;;;19.95;100.00
54389;BME280;40975;50.390;8.640;2022-08-19T01:24:55;98682.13;;;19.94;100.00
54389;BME280;40975;50.390;8.640;2022-08-19T01:27:20;98679.19;;;19.96;100.00
54389;BME280;40975;50.390;8.640;2022-08-19T01:29:46;98682.50;;;19.98;100.00
54389;BME280;40975;50.390;8.640;2022-08-19T01:32:14;98682.94;;;19.95;100.00
54389;BME280;40975;50.390;8.640;2022-08-19T01:34:40;98679.41;;;19.94;100.00
54389;BME280;40975;50.390;8.640;2022-08-19T01:37:08;98675.06;;;19.93;100.00
54389;BME280;40975;50.390;8.640;2022-08-19T01:39:37;98677.97;;;19.92;100.00
54389;BME280;40975;50.390;8.640;2022-08-19T01:42:03;98664.34;;;19.86;100.00
54389;BME280;40975;50.390;8.640;2022-08-19T01:44:29;98666.63;;;19.90;100.00
54389;BME280;40975;50.390;8.640;2022-08-19T01:46:55;98663.31;;;19.81;100.00
54389;BME280;40975;50.390;8.640;2022-08-19T01:49:22;98673.88;;;19.82;100.00
54389;BME280;40975;50.390;8.640;2022-08-19T01:51:49;98674.94;;;19.81;100.00
54389;BME280;40975;50.390;8.640;2022-08-19T01:54:17;98671.63;;;19.79;100.00
54389;BME280;40975;50.390;8.640;2022-08-19T01:56:43;98667.28;;;19.78;100.00
54389;BME280;40975;50.390;8.640;2022-08-19T01:59:12;98660.66;;;19.74;100.00
54389;BME280;40975;50.390;8.640;2022-08-19T02:01:39;98664.84;;;19.70;100.00
54389;BME280;40975;50.390;8.640;2022-08-19T02:04:05;98671.66;;;19.72;100.00
54389;BME280;40975;50.390;8.640;2022-08-19T02:06:31;98667.78;;;19.62;100.00
54389;BME280;40975;50.390;8.640;2022-08-19T02:08:58;98665.34;;;19.53;100.00
54389;BME280;40975;50.390;8.640;2022-08-19T02:11:26;98668.28;;;19.52;100.00
54389;BME280;40975;50.390;8.640;2022-08-19T02:13:53;98662.91;;;19.45;100.00
54389;BME280;40975;50.390;8.640;2022-08-19T02:16:19;98660.22;;;19.45;100.00
54389;BME280;40975;50.390;8.640;2022-08-19T02:18:46;98661.88;;;19.46;100.00
54389;BME280;40975;50.390;8.640;2022-08-19T02:21:14;98668.56;;;19.37;100.00
54389;BME280;40975;50.390;8.640;2022-08-19T02:23:41;98659.91;;;19.28;100.00
54389;BME280;40975;50.390;8.640;2022-08-19T02:26:06;98672.31;;;19.29;100.00
54389;BME280;40975;50.390;8.640;2022-08-19T02:28:33;98674.59;;;19.32;100.00
54389;BME280;40975;50.390;8.640;2022-08-19T02:30:59;98658.06;;;19.22;100.00
54389;BME280;40975;50.390;8.640;2022-08-19T02:33:26;98671.50;;;19.29;100.00
54389;BME280;40975;50.390;8.640;2022-08-19T02:35:51;98687.41;;;19.30;100.00
54389;BME280;40975;50.390;8.640;2022-08-19T02:38:17;98687.19;;;19.32;100.00
54389;BME280;40975;50.390;8.640;2022-08-19T02:40:53;98685.56;;;19.31;100.00
54389;BME280;40975;50.390;8.640;2022-08-19T02:43:19;98690.94;;;19.31;100.00
54389;BME280;40975;50.390;8.640;2022-08-19T02:45:46;98692.56;;;19.32;100.00
54389;BME280;40975;50.390;8.640;2022-08-19T02:48:17;98694.84;;;19.35;100.00
54389;BME280;40975;50.390;8.640;2022-08-19T02:50:43;98696.31;;;19.31;100.00
54389;BME280;40975;50.390;8.640;2022-08-19T02:53:09;98700.69;;;19.25;100.00
54389;BME280;40975;50.390;8.640;2022-08-19T02:55:36;98690.34;;;19.22;100.00
54389;BME280;40975;50.390;8.640;2022-08-19T02:58:07;98691.63;;;19.13;100.00
54389;BME280;40975;50.390;8.640;2022-08-19T03:00:32;98690.22;;;19.10;100.00
54389;BME280;40975;50.390;8.640;2022-08-19T03:02:57;98694.31;;;19.13;100.00
54389;BME280;40975;50.390;8.640;2022-08-19T03:05:25;98694.31;;;19.13;100.00
54389;BME280;40975;50.390;8.640;2022-08-19T03:07:50;98700.56;;;19.06;100.00
54389;BME280;40975;50.390;8.640;2022-08-19T03:10:15;98698.47;;;19.02;100.00
54389;BME280;40975;50.390;8.640;2022-08-19T03:12:41;98707.81;;;18.99;100.00
54389;BME280;40975;50.390;8.640;2022-08-19T03:15:07;98705.34;;;18.98;100.00
54389;BME280;40975;50.390;8.640;2022-08-19T03:17:34;98703.47;;;18.98;100.00
54389;BME280;40975;50.390;8.640;2022-08-19T03:20:00;98702.66;;;18.98;100.00
54389;BME280;40975;50.390;8.640;2022-08-19T03:22:25;98712.38;;;18.99;100.00
54389;BME280;40975;50.390;8.640;2022-08-19T03:24:50;98707.00;;;18.99;100.00
54389;BME280;40975;50.390;8.640;2022-08-19T03:27:16;98700.34;;;19.01;100.00
54389;BME280;40975;50.390;8.640;2022-08-19T03:29:42;98701.16;;;19.02;100.00
54389;BME280;40975;50.390;8.640;2022-08-19T03:32:09;98703.84;;;19.02;100.00
54389;BME280;40975;50.390;8.640;2022-08-19T03:34:37;98694.56;;;19.04;100.00
54389;BME280;40975;50.390;8.640;2022-08-19T03:37:06;98692.50;;;19.06;100.00
54389;BME280;40975;50.390;8.640;2022-08-19T03:39:31;98699.31;;;19.09;100.00
54389;BME280;40975;50.390;8.640;2022-08-19T03:41:57;98692.50;;;19.06;100.00
54389;BME280;40975;50.390;8.640;2022-08-19T03:44:25;98713.97;;;19.13;100.00
54389;BME280;40975;50.390;8.640;2022-08-19T03:46:56;98716.88;;;19.11;100.00
54389;BME280;40975;50.390;8.640;2022-08-19T03:49:23;98718.31;;;19.14;100.00
54389;BME280;40975;50.390;8.640;2022-08-19T03:51:49;98715.00;;;19.12;100.00
54389;BME280;40975;50.390;8.640;2022-08-19T03:54:20;98710.69;;;19.11;100.00
54389;BME280;40975;50.390;8.640;2022-08-19T03:56:47;98711.31;;;19.06;100.00
54389;BME280;40975;50.390;8.640;2022-08-19T03:59:20;98718.38;;;19.01;100.00
54389;BME280;40975;50.390;8.640;2022-08-19T04:01:46;98722.69;;;19.02;100.00
54389;BME280;40975;50.390;8.640;2022-08-19T04:04:11;98723.13;;;18.99;100.00
54389;BME280;40975;50.390;8.640;2022-08-19T04:06:38;98731.59;;;19.02;100.00
54389;BME280;40975;50.390;8.640;2022-08-19T04:09:06;98727.66;;;19.05;100.00
54389;BME280;40975;50.390;8.640;2022-08-19T04:11:41;98723.53;;;19.02;100.00
54389;BME280;40975;50.390;8.640;2022-08-19T04:14:09;98718.16;;;19.02;100.00
54389;BME280;40975;50.390;8.640;2022-08-19T04:16:35;98722.28;;;18.98;100.00
54389;BME280;40975;50.390;8.640;2022-08-19T04:19:02;98724.97;;;18.98;100.00
54389;BME280;40975;50.390;8.640;2022-08-19T04:21:28;98730.78;;;18.95;100.00
54389;BME280;40975;50.390;8.640;2022-08-19T04:23:55;98719.41;;;18.93;100.00
54389;BME280;40975;50.390;8.640;2022-08-19T04:26:24;98730.16;;;18.93;100.00
54389;BME280;40975;50.390;8.640;2022-08-19T04:28:50;98718.97;;;18.89;100.00
54389;BME280;40975;50.390;8.640;2022-08-19T04:31:20;98730.34;;;18.91;100.00
54389;BME280;40975;50.390;8.640;2022-08-19T04:33:46;98729.28;;;18.92;100.00
54389;BME280;40975;50.390;8.640;2022-08-19T04:36:24;98725.59;;;18.93;100.00
54389;BME280;40975;50.390;8.640;2022-08-19T04:38:54;98721.22;;;18.92;100.00
54389;BME280;40975;50.390;8.640;2022-08-19T04:41:19;98722.09;;;18.93;100.00
54389;BME280;40975;50.390;8.640;2022-08-19T04:44:03;98723.09;;;18.92;100.00
54389;BME280;40975;50.390;8.640;2022-08-19T04:46:29;98724.34;;;18.89;100.00
54389;BME280;40975;50.390;8.640;2022-08-19T04:48:57;98730.56;;;18.90;100.00
54389;BME280;40975;50.390;8.640;2022-08-19T04:51:23;98732.22;;;18.91;100.00
54389;BME280;40975;50.390;8.640;2022-08-19T04:53:48;98731.16;;;18.92;100.00
54389;BME280;40975;50.390;8.640;2022-08-19T04:56:16;98739.66;;;18.95;100.00
54389;BME280;40975;50.390;8.640;2022-08-19T04:58:44;98742.97;;;18.98;100.00
54389;BME280;40975;50.390;8.640;2022-08-19T05:01:17;98738.81;;;19.02;100.00
54389;BME280;40975;50.390;8.640;2022-08-19T05:03:43;98740.28;;;19.04;100.00
54389;BME280;40975;50.390;8.640;2022-08-19T05:06:12;98740.66;;;19.15;100.00
54389;BME280;40975;50.390;8.640;2022-08-19T05:08:39;98742.09;;;19.17;100.00
54389;BME280;40975;50.390;8.640;2022-08-19T05:11:14;98741.69;;;19.20;100.00
54389;BME280;40975;50.390;8.640;2022-08-19T05:13:42;98746.03;;;19.21;100.00
54389;BME280;40975;50.390;8.640;2022-08-19T05:16:09;98747.44;;;19.31;100.00
54389;BME280;40975;50.390;8.640;2022-08-19T05:18:35;98752.38;;;19.34;100.00
54389;BME280;40975;50.390;8.640;2022-08-19T05:21:20;98749.88;;;19.39;100.00
54389;BME280;40975;50.390;8.640;2022-08-19T05:24:05;98748.81;;;19.47;100.00
54389;BME280;40975;50.390;8.640;2022-08-19T05:26:40;98748.59;;;19.55;100.00
54389;BME280;40975;50.390;8.640;2022-08-19T05:29:07;98747.56;;;19.49;100.00
54389;BME280;40975;50.390;8.640;2022-08-19T05:31:34;98741.72;;;19.59;100.00
54389;BME280;40975;50.390;8.640;2022-08-19T05:34:00;98739.00;;;19.66;100.00
54389;BME280;40975;50.390;8.640;2022-08-19T05:36:27;98746.41;;;19.70;100.00
54389;BME280;40975;50.390;8.640;2022-08-19T05:38:53;98745.53;;;19.83;100.00
54389;BME280;40975;50.390;8.640;2022-08-19T05:41:20;98745.47;;;19.97;100.00
54389;BME280;40975;50.390;8.640;2022-08-19T05:43:46;98744.56;;;20.10;100.00
54389;BME280;40975;50.390;8.640;2022-08-19T05:46:18;98744.75;;;20.15;100.00
54389;BME280;40975;50.390;8.640;2022-08-19T05:48:44;98745.25;;;20.30;100.00
54389;BME280;40975;50.390;8.640;2022-08-19T05:51:10;98753.88;;;20.39;100.00
54389;BME280;40975;50.390;8.640;2022-08-19T05:53:36;98760.59;;;20.55;100.00
54389;BME280;40975;50.390;8.640;2022-08-19T05:56:06;98755.72;;;20.64;100.00
54389;BME280;40975;50.390;8.640;2022-08-19T05:58:32;98765.16;;;20.80;100.00
54389;BME280;40975;50.390;8.640;2022-08-19T06:00:58;98764.50;;;20.85;100.00
54389;BME280;40975;50.390;8.640;2022-08-19T06:03:29;98768.56;;;20.94;99.47
54389;BME280;40975;50.390;8.640;2022-08-19T06:05:55;98771.63;;;20.97;99.34
54389;BME280;40975;50.390;8.640;2022-08-19T06:08:20;98775.63;;;21.13;98.74
54389;BME280;40975;50.390;8.640;2022-08-19T06:10:45;98775.84;;;21.12;97.91
54389;BME280;40975;50.390;8.640;2022-08-19T06:13:11;98773.22;;;21.24;96.42
54389;BME280;40975;50.390;8.640;2022-08-19T06:15:36;98777.25;;;21.33;95.41
54389;BME280;40975;50.390;8.640;2022-08-19T06:18:01;98775.22;;;21.47;94.59
54389;BME280;40975;50.390;8.640;2022-08-19T06:20:27;98780.75;;;21.59;93.59
54389;BME280;40975;50.390;8.640;2022-08-19T06:22:52;98778.78;;;21.66;92.40
54389;BME280;40975;50.390;8.640;2022-08-19T06:25:17;98780.25;;;21.81;91.88
54389;BME280;40975;50.390;8.640;2022-08-19T06:27:43;98781.31;;;21.80;91.34
54389;BME280;40975;50.390;8.640;2022-08-19T06:30:09;98791.56;;;21.89;90.52
54389;BME280;40975;50.390;8.640;2022-08-19T06:32:36;98796.84;;;21.84;90.51
54389;BME280;40975;50.390;8.640;2022-08-19T06:35:02;98807.81;;;22.01;88.58
54389;BME280;40975;50.390;8.640;2022-08-19T06:37:27;98806.06;;;22.07;88.71
54389;BME280;40975;50.390;8.640;2022-08-19T06:39:53;98819.66;;;22.31;87.71
54389;BME280;40975;50.390;8.640;2022-08-19T06:42:18;98817.88;;;22.55;85.78
54389;BME280;40975;50.390;8.640;2022-08-19T06:44:46;98809.91;;;22.60;85.58
54389;BME280;40975;50.390;8.640;2022-08-19T06:47:16;98805.91;;;22.75;85.61
54389;BME280;40975;50.390;8.640;2022-08-19T06:49:41;98806.25;;;22.78;85.13
54389;BME280;40975;50.390;8.640;2022-08-19T06:52:07;98802.84;;;23.07;83.84
54389;BME280;40975;50.390;8.640;2022-08-19T06:54:33;98806.38;;;23.31;82.65
54389;BME280;40975;50.390;8.640;2022-08-19T06:56:59;98823.78;;;24.00;80.37
54389;BME280;40975;50.390;8.640;2022-08-19T06:59:28;98818.34;;;24.46;75.84
54389;BME280;40975;50.390;8.640;2022-08-19T07:01:55;98812.78;;;25.04;72.34
54389;BME280;40975;50.390;8.640;2022-08-19T07:04:29;98810.81;;;25.83;68.18
54389;BME280;40975;50.390;8.640;2022-08-19T07:07:05;98808.19;;;26.43;65.51
54389;BME280;40975;50.390;8.640;2022-08-19T07:09:36;98811.72;;;26.76;64.37
54389;BME280;40975;50.390;8.640;2022-08-19T07:12:04;98825.28;;;27.03;63.71
54389;BME280;40975;50.390;8.640;2022-08-19T07:14:29;98833.88;;;26.84;63.87
54389;BME280;40975;50.390;8.640;2022-08-19T07:16:56;98815.25;;;26.76;63.43
54389;BME280;40975;50.390;8.640;2022-08-19T07:19:23;98824.56;;;27.18;62.09
54389;BME280;40975;50.390;8.640;2022-08-19T07:21:50;98819.06;;;27.61;61.14
54389;BME280;40975;50.390;8.640;2022-08-19T07:24:21;98814.22;;;27.73;60.15
54389;BME280;40975;50.390;8.640;2022-08-19T07:26:52;98829.09;;;27.50;60.98
54389;BME280;40975;50.390;8.640;2022-08-19T07:29:18;98830.34;;;27.32;61.00
54389;BME280;40975;50.390;8.640;2022-08-19T07:31:45;98834.72;;;27.33;61.55
54389;BME280;40975;50.390;8.640;2022-08-19T07:34:11;98832.91;;;27.06;63.45
54389;BME280;40975;50.390;8.640;2022-08-19T07:36:39;98844.50;;;26.91;63.86
54389;BME280;40975;50.390;8.640;2022-08-19T07:39:10;98844.56;;;26.96;62.82
54389;BME280;40975;50.390;8.640;2022-08-19T07:41:36;98840.22;;;26.68;63.42
54389;BME280;40975;50.390;8.640;2022-08-19T07:44:02;98828.09;;;26.48;64.92
54389;BME280;40975;50.390;8.640;2022-08-19T07:46:33;98828.66;;;26.83;63.71
54389;BME280;40975;50.390;8.640;2022-08-19T07:48:59;98825.44;;;26.86;64.00
54389;BME280;40975;50.390;8.640;2022-08-19T07:51:27;98830.09;;;26.58;64.39
54389;BME280;40975;50.390;8.640;2022-08-19T07:53:53;98829.91;;;26.37;65.05
54389;BME280;40975;50.390;8.640;2022-08-19T07:56:19;98831.34;;;26.45;65.21
54389;BME280;40975;50.390;8.640;2022-08-19T07:58:47;98834.84;;;27.11;63.23
54389;BME280;40975;50.390;8.640;2022-08-19T08:01:17;98836.91;;;26.93;62.98
54389;BME280;40975;50.390;8.640;2022-08-19T08:03:44;98829.00;;;27.35;61.78
54389;BME280;40975;50.390;8.640;2022-08-19T08:06:28;98830.78;;;27.56;60.46
54389;BME280;40975;50.390;8.640;2022-08-19T08:09:15;98839.25;;;27.65;60.37
54389;BME280;40975;50.390;8.640;2022-08-19T08:11:52;98845.34;;;27.83;60.41
54389;BME280;40975;50.390;8.640;2022-08-19T08:14:22;98834.75;;;28.02;59.56
54389;BME280;40975;50.390;8.640;2022-08-19T08:16:49;98849.53;;;28.16;59.14
54389;BME280;40975;50.390;8.640;2022-08-19T08:19:19;98845.81;;;28.74;57.56
54389;BME280;40975;50.390;8.640;2022-08-19T08:21:46;98852.72;;;29.78;55.46
54389;BME280;40975;50.390;8.640;2022-08-19T08:24:12;98862.63;;;30.24;51.38
54389;BME280;40975;50.390;8.640;2022-08-19T08:26:38;98853.00;;;29.67;52.39
54389;BME280;40975;50.390;8.640;2022-08-19T08:29:04;98857.50;;;29.16;53.90
54389;BME280;40975;50.390;8.640;2022-08-19T08:31:30;98859.91;;;28.24;56.43
54389;BME280;40975;50.390;8.640;2022-08-19T08:33:55;98861.38;;;28.89;54.34
54389;BME280;40975;50.390;8.640;2022-08-19T08:36:21;98858.13;;;29.89;52.87
54389;BME280;40975;50.390;8.640;2022-08-19T08:38:46;98858.13;;;29.94;51.42
54389;BME280;40975;50.390;8.640;2022-08-19T08:41:23;98863.66;;;30.74;50.43
54389;BME280;40975;50.390;8.640;2022-08-19T08:43:53;98849.25;;;30.92;49.39
54389;BME280;40975;50.390;8.640;2022-08-19T08:49:23;98862.81;;;31.86;46.54
54389;BME280;40975;50.390;8.640;2022-08-19T08:52:03;98860.31;;;29.87;49.59
54389;BME280;40975;50.390;8.640;2022-08-19T08:54:53;98867.88;;;28.57;53.66
54389;BME280;40975;50.390;8.640;2022-08-19T08:57:33;98870.47;;;28.00;56.39
54389;BME280;40975;50.390;8.640;2022-08-19T09:00:02;98865.75;;;30.02;50.73
54389;BME280;40975;50.390;8.640;2022-08-19T09:02:30;98865.94;;;31.79;46.83
54389;BME280;40975;50.390;8.640;2022-08-19T09:04:55;98863.66;;;33.29;43.53
54389;BME280;40975;50.390;8.640;2022-08-19T09:13:36;98869.25;;;32.91;42.13
54389;BME280;40975;50.390;8.640;2022-08-19T09:16:11;98859.28;;;32.62;42.06
54389;BME280;40975;50.390;8.640;2022-08-19T09:18:40;98858.69;;;32.07;43.09
54389;BME280;40975;50.390;8.640;2022-08-19T09:21:06;98862.25;;;30.36;46.81
54389;BME280;40975;50.390;8.640;2022-08-19T09:23:33;98857.03;;;31.63;44.47
54389;BME280;40975;50.390;8.640;2022-08-19T09:25:59;98859.00;;;31.04;45.75
54389;BME280;40975;50.390;8.640;2022-08-19T09:28:24;98854.97;;;30.96;45.75
54389;BME280;40975;50.390;8.640;2022-08-19T09:30:51;98841.56;;;32.54;42.39
54389;BME280;40975;50.390;8.640;2022-08-19T09:33:16;98847.34;;;34.02;39.13
54389;BME280;40975;50.390;8.640;2022-08-19T09:35:42;98844.41;;;34.81;37.25
54389;BME280;40975;50.390;8.640;2022-08-19T09:38:07;98839.50;;;35.90;35.31
54389;BME280;40975;50.390;8.640;2022-08-19T09:40:33;98836.47;;;36.18;35.37
54389;BME280;40975;50.390;8.640;2022-08-19T09:42:59;98837.75;;;36.73;34.35
54389;BME280;40975;50.390;8.640;2022-08-19T09:45:28;98839.22;;;36.62;32.97
54389;BME280;40975;50.390;8.640;2022-08-19T09:47:53;98844.34;;;35.26;35.18
54389;BME280;40975;50.390;8.640;2022-08-19T09:50:19;98830.41;;;35.80;35.28
54389;BME280;40975;50.390;8.640;2022-08-19T09:52:45;98827.19;;;35.96;34.71
54389;BME280;40975;50.390;8.640;2022-08-19T09:55:11;98823.06;;;35.58;35.24
54389;BME280;40975;50.390;8.640;2022-08-19T09:57:37;98834.91;;;33.77;38.23
54389;BME280;40975;50.390;8.640;2022-08-19T10:00:05;98835.69;;;31.84;40.78
54389;BME280;40975;50.390;8.640;2022-08-19T10:02:32;98833.69;;;33.69;38.01
54389;BME280;40975;50.390;8.640;2022-08-19T10:04:58;98837.25;;;34.80;35.92
54389;BME280;40975;50.390;8.640;2022-08-19T10:07:41;98825.56;;;35.37;34.38
54389;BME280;40975;50.390;8.640;2022-08-19T10:10:07;98826.09;;;36.06;34.07
54389;BME280;40975;50.390;8.640;2022-08-19T10:12:34;98816.47;;;36.65;33.77
54389;BME280;40975;50.390;8.640;2022-08-19T10:15:00;98815.38;;;35.06;35.33
54389;BME280;40975;50.390;8.640;2022-08-19T10:17:27;98810.91;;;33.41;37.45
54389;BME280;40975;50.390;8.640;2022-08-19T10:19:52;98810.88;;;33.69;38.17
54389;BME280;40975;50.390;8.640;2022-08-19T10:22:18;98814.97;;;34.22;35.95
54389;BME280;40975;50.390;8.640;2022-08-19T10:24:45;98815.25;;;33.84;36.90
54389;BME280;40975;50.390;8.640;2022-08-19T10:27:11;98811.28;;;33.76;37.08
54389;BME280;40975;50.390;8.640;2022-08-19T10:29:38;98813.84;;;33.30;37.36
54389;BME280;40975;50.390;8.640;2022-08-19T10:32:06;98810.84;;;33.97;37.02
54389;BME280;40975;50.390;8.640;2022-08-19T10:34:33;98808.41;;;34.77;35.59
54389;BME280;40975;50.390;8.640;2022-08-19T10:36:59;98803.50;;;32.94;38.59
54389;BME280;40975;50.390;8.640;2022-08-19T10:39:26;98821.28;;;31.73;40.89
54389;BME280;40975;50.390;8.640;2022-08-19T10:41:54;98824.00;;;30.66;43.54
54389;BME280;40975;50.390;8.640;2022-08-19T10:44:21;98813.06;;;30.26;44.08
54389;BME280;40975;50.390;8.640;2022-08-19T10:46:48;98820.41;;;29.81;44.46
54389;BME280;40975;50.390;8.640;2022-08-19T10:49:13;98820.88;;;29.27;44.67
54389;BME280;40975;50.390;8.640;2022-08-19T10:51:39;98808.50;;;29.51;44.00
54389;BME280;40975;50.390;8.640;2022-08-19T10:54:24;98815.22;;;31.28;41.70
54389;BME280;40975;50.390;8.640;2022-08-19T10:57:10;98810.75;;;32.19;39.32
54389;BME280;40975;50.390;8.640;2022-08-19T10:59:35;98808.09;;;31.94;39.57
54389;BME280;40975;50.390;8.640;2022-08-19T11:02:03;98801.81;;;31.26;40.79
54389;BME280;40975;50.390;8.640;2022-08-19T11:04:29;98799.72;;;30.59;42.44
54389;BME280;40975;50.390;8.640;2022-08-19T11:06:55;98789.00;;;30.63;41.04
54389;BME280;40975;50.390;8.640;2022-08-19T11:09:23;98800.50;;;30.25;41.17
54389;BME280;40975;50.390;8.640;2022-08-19T11:11:55;98794.66;;;30.71;41.39
54389;BME280;40975;50.390;8.640;2022-08-19T11:14:22;98788.25;;;31.11;41.74
54389;BME280;40975;50.390;8.640;2022-08-19T11:16:49;98792.00;;;31.20;40.89
54389;BME280;40975;50.390;8.640;2022-08-19T11:19:15;98788.72;;;30.64;41.84
54389;BME280;40975;50.390;8.640;2022-08-19T11:21:46;98785.41;;;31.21;41.73
54389;BME280;40975;50.390;8.640;2022-08-19T11:24:18;98778.22;;;31.74;40.00
54389;BME280;40975;50.390;8.640;2022-08-19T11:26:44;98766.88;;;32.38;39.58
54389;BME280;40975;50.390;8.640;2022-08-19T11:29:11;98778.72;;;32.14;39.09
54389;BME280;40975;50.390;8.640;2022-08-19T11:31:41;98769.75;;;30.73;40.41
54389;BME280;40975;50.390;8.640;2022-08-19T11:34:10;98773.50;;;30.13;41.78
54389;BME280;40975;50.390;8.640;2022-08-19T11:36:38;98761.03;;;30.66;40.60
54389;BME280;40975;50.390;8.640;2022-08-19T11:39:06;98748.44;;;31.43;39.57
54389;BME280;40975;50.390;8.640;2022-08-19T11:41:33;98753.47;;;31.55;38.63
54389;BME280;40975;50.390;8.640;2022-08-19T11:43:58;98742.75;;;31.58;38.44
54389;BME280;40975;50.390;8.640;2022-08-19T11:46:26;98724.63;;;31.82;38.20
54389;BME280;40975;50.390;8.640;2022-08-19T11:48:55;98727.31;;;32.20;36.80
54389;BME280;40975;50.390;8.640;2022-08-19T11:51:22;98727.63;;;32.18;37.33
54389;BME280;40975;50.390;8.640;2022-08-19T11:53:50;98731.44;;;32.03;36.80
54389;BME280;40975;50.390;8.640;2022-08-19T11:56:17;98731.88;;;31.91;36.25
54389;BME280;40975;50.390;8.640;2022-08-19T11:58:42;98741.81;;;32.25;35.84
54389;BME280;40975;50.390;8.640;2022-08-19T12:01:09;98741.69;;;32.31;35.14
54389;BME280;40975;50.390;8.640;2022-08-19T12:03:37;98745.38;;;32.40;36.04
54389;BME280;40975;50.390;8.640;2022-08-19T12:06:06;98744.06;;;32.37;35.00
54389;BME280;40975;50.390;8.640;2022-08-19T12:08:33;98737.72;;;32.04;35.85
54389;BME280;40975;50.390;8.640;2022-08-19T12:10:58;98734.88;;;32.28;36.82
54389;BME280;40975;50.390;8.640;2022-08-19T12:13:27;98732.50;;;32.21;35.46
54389;BME280;40975;50.390;8.640;2022-08-19T12:15:53;98722.78;;;32.29;35.59
54389;BME280;40975;50.390;8.640;2022-08-19T12:18:19;98728.31;;;32.43;34.98
54389;BME280;40975;50.390;8.640;2022-08-19T12:20:45;98724.50;;;32.58;34.86
54389;BME280;40975;50.390;8.640;2022-08-19T12:23:11;98724.19;;;32.60;35.11
54389;BME280;40975;50.390;8.640;2022-08-19T12:25:37;98730.16;;;32.81;34.21
54389;BME280;40975;50.390;8.640;2022-08-19T12:28:20;98730.16;;;32.48;34.80
54389;BME280;40975;50.390;8.640;2022-08-19T12:30:46;98727.84;;;32.22;34.24
54389;BME280;40975;50.390;8.640;2022-08-19T12:33:13;98736.22;;;32.31;35.32
54389;BME280;40975;50.390;8.640;2022-08-19T12:35:40;98727.81;;;32.55;34.74
54389;BME280;40975;50.390;8.640;2022-08-19T12:38:06;98716.56;;;32.56;33.86
54389;BME280;40975;50.390;8.640;2022-08-19T12:40:32;98719.69;;;32.50;34.36
54389;BME280;40975;50.390;8.640;2022-08-19T12:42:57;98723.44;;;32.40;34.56
54389;BME280;40975;50.390;8.640;2022-08-19T12:45:22;98717.72;;;32.36;34.96
54389;BME280;40975;50.390;8.640;2022-08-19T12:47:48;98709.03;;;32.62;34.47
54389;BME280;40975;50.390;8.640;2022-08-19T12:50:14;98720.63;;;32.59;34.40
54389;BME280;40975;50.390;8.640;2022-08-19T12:52:39;98707.78;;;32.40;34.35
54389;BME280;40975;50.390;8.640;2022-08-19T12:55:08;98704.34;;;32.49;34.35
54389;BME280;40975;50.390;8.640;2022-08-19T12:57:33;98702.00;;;32.56;36.16
54389;BME280;40975;50.390;8.640;2022-08-19T13:00:09;98711.28;;;32.60;35.49
54389;BME280;40975;50.390;8.640;2022-08-19T13:02:37;98704.38;;;32.30;35.65
54389;BME280;40975;50.390;8.640;2022-08-19T13:05:03;98717.63;;;32.08;35.00
54389;BME280;40975;50.390;8.640;2022-08-19T13:07:31;98704.75;;;32.70;34.09
54389;BME280;40975;50.390;8.640;2022-08-19T13:09:57;98697.25;;;32.76;33.71